FDX5220 EGSS-EIDW
Flight info
| Callsign | FDX5220 |
|---|---|
| Flight time | 0h 55m |
| Altitude | 32000 |
| Route | NUGBO M183 SILVA P86 DIDZA N14 OKSAW DCT BIBPE DCT OKTAD DCT MEDOG DCT KRAGY DCT PEMOB M17 VATRY VATRY4L |
| Aircraft | B77L/H-SDE1E2E3FGHIJ2J3J4J5M1RWXY/LB1D1 |
Departure
| Time | 2026-05-05 08:32 |
|---|---|
| Airport | London Stansted Airport (EGSS) |
Arrival
| Time | 2026-05-05 09:27 |
|---|---|
| Airport | Dublin Airport (EIDW) |
| Time | Latitude | Longitude | Altitude | Speed | Heading |
|---|---|---|---|---|---|
| 2026-05-05 08:01 | 51.88556 | 0.24553 | 363 ft | 0 kts | 42° |
| 2026-05-05 08:22 | 51.88555 | 0.24552 | 353 ft | 1 kts | 42° |
| 2026-05-05 08:22 | 51.88544 | 0.24536 | 353 ft | 3 kts | 42° |
| 2026-05-05 08:22 | 51.88529 | 0.24513 | 363 ft | 3 kts | 42° |
| 2026-05-05 08:23 | 51.88514 | 0.24492 | 362 ft | 3 kts | 39° |
| 2026-05-05 08:23 | 51.88498 | 0.24473 | 361 ft | 3 kts | 19° |
| 2026-05-05 08:23 | 51.88483 | 0.24470 | 363 ft | 3 kts | 325° |
| 2026-05-05 08:23 | 51.88475 | 0.24481 | 363 ft | 2 kts | 313° |
| 2026-05-05 08:24 | 51.88462 | 0.24503 | 363 ft | 2 kts | 313° |
| 2026-05-05 08:24 | 51.88458 | 0.24511 | 360 ft | 1 kts | 313° |
| 2026-05-05 08:26 | 51.88459 | 0.24508 | 363 ft | 3 kts | 313° |
| 2026-05-05 08:26 | 51.88502 | 0.24435 | 363 ft | 10 kts | 313° |
| 2026-05-05 08:26 | 51.88531 | 0.24339 | 363 ft | 10 kts | 261° |
| 2026-05-05 08:27 | 51.88477 | 0.24230 | 361 ft | 15 kts | 224° |
| 2026-05-05 08:27 | 51.88404 | 0.24117 | 361 ft | 15 kts | 224° |
| 2026-05-05 08:27 | 51.88329 | 0.24004 | 363 ft | 15 kts | 221° |
| 2026-05-05 08:27 | 51.88252 | 0.23895 | 358 ft | 15 kts | 221° |
| 2026-05-05 08:28 | 51.88177 | 0.23782 | 358 ft | 15 kts | 223° |
| 2026-05-05 08:28 | 51.88085 | 0.23642 | 362 ft | 19 kts | 223° |
| 2026-05-05 08:28 | 51.87989 | 0.23496 | 358 ft | 19 kts | 223° |
| 2026-05-05 08:28 | 51.87928 | 0.23404 | 358 ft | 0 kts | 223° |
| 2026-05-05 08:29 | 51.87912 | 0.23381 | 359 ft | 10 kts | 223° |
| 2026-05-05 08:29 | 51.87832 | 0.23261 | 360 ft | 17 kts | 223° |
| 2026-05-05 08:29 | 51.87748 | 0.23136 | 363 ft | 15 kts | 225° |
| 2026-05-05 08:30 | 51.87748 | 0.22840 | 358 ft | 15 kts | 224° |
| 2026-05-05 08:30 | 51.87660 | 0.22708 | 361 ft | 19 kts | 223° |
| 2026-05-05 08:30 | 51.87565 | 0.22566 | 362 ft | 19 kts | 223° |
| 2026-05-05 08:30 | 51.87462 | 0.22413 | 356 ft | 20 kts | 223° |
| 2026-05-05 08:31 | 51.87404 | 0.22271 | 352 ft | 15 kts | 265° |
| 2026-05-05 08:31 | 51.87450 | 0.22119 | 353 ft | 16 kts | 312° |
| 2026-05-05 08:31 | 51.87524 | 0.22036 | 336 ft | 13 kts | 11° |
| 2026-05-05 08:31 | 51.87700 | 0.22280 | 348 ft | 73 kts | 43° |
| 2026-05-05 08:32 | 51.88296 | 0.23170 | 354 ft | 156 kts | 41° |
| 2026-05-05 08:32 | 51.89216 | 0.24494 | 743 ft | 190 kts | 41° |
| 2026-05-05 08:32 | 51.90221 | 0.26026 | 1463 ft | 209 kts | 42° |
| 2026-05-05 08:32 | 51.91373 | 0.27765 | 1963 ft | 238 kts | 42° |
| 2026-05-05 08:33 | 51.92604 | 0.29538 | 2993 ft | 238 kts | 35° |
| 2026-05-05 08:33 | 51.94212 | 0.30404 | 3588 ft | 257 kts | 359° |
| 2026-05-05 08:33 | 51.95868 | 0.29465 | 4519 ft | 264 kts | 325° |
| 2026-05-05 08:33 | 51.97010 | 0.27114 | 4921 ft | 272 kts | 292° |
| 2026-05-05 08:34 | 51.97367 | 0.24112 | 4969 ft | 270 kts | 276° |
| 2026-05-05 08:34 | 51.97554 | 0.21000 | 5075 ft | 277 kts | 278° |
| 2026-05-05 08:34 | 51.97796 | 0.17939 | 5872 ft | 277 kts | 278° |
| 2026-05-05 08:34 | 51.98070 | 0.14862 | 6932 ft | 275 kts | 280° |
| 2026-05-05 08:35 | 51.98377 | 0.11813 | 7907 ft | 275 kts | 280° |
| 2026-05-05 08:35 | 51.98705 | 0.08725 | 8813 ft | 278 kts | 281° |
| 2026-05-05 08:35 | 51.98939 | 0.05615 | 9629 ft | 280 kts | 268° |
| 2026-05-05 08:35 | 51.98582 | 0.02487 | 10317 ft | 287 kts | 257° |
| 2026-05-05 08:36 | 51.98108 | -0.00775 | 10633 ft | 311 kts | 258° |
| 2026-05-05 08:36 | 51.97636 | -0.04372 | 10853 ft | 340 kts | 259° |
| 2026-05-05 08:36 | 51.97137 | -0.08267 | 11191 ft | 362 kts | 259° |
| 2026-05-05 08:36 | 51.96612 | -0.12325 | 11959 ft | 373 kts | 259° |
| 2026-05-05 08:37 | 51.96071 | -0.16472 | 12872 ft | 379 kts | 258° |
| 2026-05-05 08:37 | 51.95521 | -0.20679 | 13833 ft | 384 kts | 258° |
| 2026-05-05 08:37 | 51.94962 | -0.24941 | 14686 ft | 388 kts | 258° |
| 2026-05-05 08:37 | 51.94397 | -0.29246 | 15577 ft | 392 kts | 257° |
| 2026-05-05 08:38 | 51.93825 | -0.33584 | 16468 ft | 395 kts | 257° |
| 2026-05-05 08:38 | 51.93246 | -0.37962 | 17331 ft | 400 kts | 257° |
| 2026-05-05 08:38 | 51.92666 | -0.42339 | 18146 ft | 405 kts | 257° |
| 2026-05-05 08:38 | 51.92062 | -0.46882 | 18880 ft | 409 kts | 256° |
| 2026-05-05 08:39 | 51.91461 | -0.51400 | 19621 ft | 412 kts | 256° |
| 2026-05-05 08:39 | 51.90852 | -0.55956 | 20372 ft | 416 kts | 256° |
| 2026-05-05 08:39 | 51.90233 | -0.60567 | 21085 ft | 420 kts | 256° |
| 2026-05-05 08:39 | 51.89617 | -0.65150 | 21768 ft | 424 kts | 256° |
| 2026-05-05 08:40 | 51.88986 | -0.69828 | 22469 ft | 428 kts | 256° |
| 2026-05-05 08:40 | 51.88346 | -0.74560 | 23165 ft | 432 kts | 256° |
| 2026-05-05 08:40 | 51.87698 | -0.79328 | 23813 ft | 436 kts | 256° |
| 2026-05-05 08:40 | 51.87046 | -0.84125 | 24427 ft | 438 kts | 256° |
| 2026-05-05 08:41 | 51.86387 | -0.88956 | 25088 ft | 439 kts | 256° |
| 2026-05-05 08:41 | 51.85712 | -0.93779 | 25748 ft | 439 kts | 253° |
| 2026-05-05 08:41 | 51.84680 | -0.98426 | 26318 ft | 440 kts | 243° |
| 2026-05-05 08:41 | 51.83148 | -1.02713 | 26859 ft | 442 kts | 234° |
| 2026-05-05 08:42 | 51.81227 | -1.06598 | 27453 ft | 443 kts | 225° |
| 2026-05-05 08:42 | 51.79036 | -1.10106 | 28063 ft | 444 kts | 223° |
| 2026-05-05 08:42 | 51.76824 | -1.13604 | 28723 ft | 445 kts | 223° |
| 2026-05-05 08:42 | 51.74623 | -1.17120 | 29605 ft | 441 kts | 224° |
| 2026-05-05 08:43 | 51.72473 | -1.20592 | 30506 ft | 435 kts | 224° |
| 2026-05-05 08:43 | 51.70367 | -1.24013 | 31061 ft | 435 kts | 224° |
| 2026-05-05 08:43 | 51.68224 | -1.27494 | 31417 ft | 440 kts | 224° |
| 2026-05-05 08:43 | 51.66079 | -1.31024 | 31799 ft | 440 kts | 227° |
| 2026-05-05 08:44 | 51.64365 | -1.35153 | 31924 ft | 451 kts | 244° |
| 2026-05-05 08:44 | 51.63507 | -1.40036 | 32012 ft | 457 kts | 261° |
| 2026-05-05 08:44 | 51.63502 | -1.45149 | 32036 ft | 459 kts | 274° |
| 2026-05-05 08:44 | 51.64193 | -1.50177 | 32017 ft | 463 kts | 288° |
| 2026-05-05 08:45 | 51.65658 | -1.54814 | 32040 ft | 467 kts | 298° |
| 2026-05-05 08:45 | 51.68845 | -1.63959 | 32017 ft | 468 kts | 292° |
| 2026-05-05 08:46 | 51.70784 | -1.73870 | 32020 ft | 462 kts | 278° |
| 2026-05-05 08:46 | 51.71549 | -1.84112 | 32019 ft | 459 kts | 274° |
| 2026-05-05 08:47 | 51.72862 | -1.94218 | 32051 ft | 461 kts | 281° |
| 2026-05-05 08:47 | 51.74422 | -2.04276 | 32043 ft | 462 kts | 281° |
| 2026-05-05 08:48 | 51.75941 | -2.14350 | 32048 ft | 462 kts | 281° |
| 2026-05-05 08:48 | 51.77428 | -2.24453 | 32044 ft | 463 kts | 281° |
| 2026-05-05 08:49 | 51.78905 | -2.34582 | 32046 ft | 463 kts | 281° |
| 2026-05-05 08:49 | 51.80374 | -2.44708 | 32044 ft | 462 kts | 282° |
| 2026-05-05 08:50 | 51.81832 | -2.54806 | 32043 ft | 465 kts | 282° |
| 2026-05-05 08:50 | 51.83241 | -2.65045 | 32040 ft | 468 kts | 281° |
| 2026-05-05 08:51 | 51.84615 | -2.75347 | 32029 ft | 469 kts | 281° |
| 2026-05-05 08:51 | 51.85990 | -2.85676 | 32005 ft | 470 kts | 281° |
| 2026-05-05 08:52 | 51.87361 | -2.96004 | 31994 ft | 470 kts | 281° |
| 2026-05-05 08:52 | 51.88728 | -3.06363 | 32003 ft | 471 kts | 281° |
| 2026-05-05 08:53 | 51.90094 | -3.16783 | 32019 ft | 474 kts | 281° |
| 2026-05-05 08:53 | 51.91451 | -3.27225 | 32032 ft | 474 kts | 281° |
| 2026-05-05 08:54 | 51.92803 | -3.37706 | 32027 ft | 474 kts | 281° |
| 2026-05-05 08:54 | 51.94138 | -3.48121 | 32040 ft | 475 kts | 282° |
| 2026-05-05 08:55 | 51.95475 | -3.58626 | 32051 ft | 476 kts | 282° |
| 2026-05-05 08:55 | 51.96810 | -3.69140 | 32037 ft | 476 kts | 282° |
| 2026-05-05 08:56 | 51.98136 | -3.79653 | 32045 ft | 476 kts | 282° |
| 2026-05-05 08:56 | 51.99452 | -3.90181 | 32046 ft | 476 kts | 282° |
| 2026-05-05 08:57 | 52.00757 | -4.00692 | 32043 ft | 475 kts | 282° |
| 2026-05-05 08:57 | 52.02054 | -4.11219 | 32047 ft | 475 kts | 282° |
| 2026-05-05 08:58 | 52.03322 | -4.21611 | 32032 ft | 457 kts | 282° |
| 2026-05-05 08:58 | 52.03930 | -4.26624 | 31715 ft | 452 kts | 282° |
| 2026-05-05 08:58 | 52.04537 | -4.31628 | 31222 ft | 449 kts | 282° |
| 2026-05-05 08:58 | 52.05127 | -4.36524 | 30771 ft | 445 kts | 282° |
| 2026-05-05 08:59 | 52.05718 | -4.41441 | 30313 ft | 441 kts | 282° |
| 2026-05-05 08:59 | 52.06301 | -4.46314 | 29815 ft | 438 kts | 283° |
| 2026-05-05 08:59 | 52.06878 | -4.51155 | 29325 ft | 433 kts | 283° |
| 2026-05-05 08:59 | 52.07446 | -4.55935 | 28880 ft | 429 kts | 282° |
| 2026-05-05 09:00 | 52.08007 | -4.60673 | 28433 ft | 424 kts | 283° |
| 2026-05-05 09:00 | 52.08559 | -4.65354 | 27992 ft | 419 kts | 282° |
| 2026-05-05 09:00 | 52.09105 | -4.69989 | 27548 ft | 416 kts | 282° |
| 2026-05-05 09:00 | 52.09643 | -4.74586 | 27114 ft | 412 kts | 282° |
| 2026-05-05 09:01 | 52.10177 | -4.79149 | 26693 ft | 408 kts | 281° |
| 2026-05-05 09:01 | 52.10702 | -4.83664 | 26264 ft | 404 kts | 281° |
| 2026-05-05 09:01 | 52.11220 | -4.88130 | 25836 ft | 401 kts | 281° |
| 2026-05-05 09:01 | 52.11735 | -4.92583 | 25442 ft | 398 kts | 280° |
| 2026-05-05 09:02 | 52.12241 | -4.96988 | 25032 ft | 394 kts | 280° |
| 2026-05-05 09:02 | 52.12739 | -5.01363 | 24622 ft | 391 kts | 279° |
| 2026-05-05 09:02 | 52.13229 | -5.05690 | 24309 ft | 387 kts | 279° |
| 2026-05-05 09:02 | 52.13716 | -5.09984 | 24058 ft | 382 kts | 281° |
| 2026-05-05 09:03 | 52.14593 | -5.14011 | 23677 ft | 379 kts | 300° |
| 2026-05-05 09:03 | 52.16275 | -5.17300 | 23252 ft | 379 kts | 317° |
| 2026-05-05 09:03 | 52.18464 | -5.19661 | 22827 ft | 377 kts | 332° |
| 2026-05-05 09:03 | 52.20800 | -5.21550 | 22410 ft | 373 kts | 333° |
| 2026-05-05 09:04 | 52.23127 | -5.23392 | 21995 ft | 371 kts | 333° |
| 2026-05-05 09:04 | 52.25438 | -5.25234 | 21575 ft | 368 kts | 333° |
| 2026-05-05 09:04 | 52.27723 | -5.27078 | 21180 ft | 365 kts | 333° |
| 2026-05-05 09:04 | 52.29987 | -5.28926 | 20776 ft | 363 kts | 333° |
| 2026-05-05 09:05 | 52.32206 | -5.30750 | 20392 ft | 360 kts | 333° |
| 2026-05-05 09:05 | 52.34431 | -5.32587 | 19992 ft | 358 kts | 332° |
| 2026-05-05 09:05 | 52.36651 | -5.34424 | 19603 ft | 356 kts | 332° |
| 2026-05-05 09:05 | 52.38852 | -5.36247 | 19206 ft | 354 kts | 333° |
| 2026-05-05 09:06 | 52.41045 | -5.38065 | 18821 ft | 352 kts | 332° |
| 2026-05-05 09:06 | 52.43224 | -5.39872 | 18425 ft | 350 kts | 332° |
| 2026-05-05 09:06 | 52.45395 | -5.41672 | 17977 ft | 348 kts | 332° |
| 2026-05-05 09:06 | 52.47553 | -5.43464 | 17562 ft | 346 kts | 332° |
| 2026-05-05 09:07 | 52.49688 | -5.45239 | 17146 ft | 343 kts | 332° |
| 2026-05-05 09:07 | 52.51806 | -5.47001 | 16758 ft | 340 kts | 332° |
| 2026-05-05 09:07 | 52.53910 | -5.48753 | 16362 ft | 336 kts | 332° |
| 2026-05-05 09:07 | 52.56030 | -5.50338 | 15971 ft | 334 kts | 339° |
| 2026-05-05 09:08 | 52.58231 | -5.51509 | 15586 ft | 331 kts | 342° |
| 2026-05-05 09:08 | 52.60398 | -5.52590 | 15204 ft | 328 kts | 342° |
| 2026-05-05 09:08 | 52.62598 | -5.53694 | 14830 ft | 325 kts | 341° |
| 2026-05-05 09:08 | 52.64727 | -5.54773 | 14470 ft | 323 kts | 341° |
| 2026-05-05 09:09 | 52.66865 | -5.55865 | 14092 ft | 320 kts | 342° |
| 2026-05-05 09:09 | 52.68990 | -5.56955 | 13713 ft | 318 kts | 341° |
| 2026-05-05 09:09 | 52.71093 | -5.58035 | 13313 ft | 315 kts | 341° |
| 2026-05-05 09:09 | 52.73177 | -5.59111 | 12928 ft | 312 kts | 341° |
| 2026-05-05 09:10 | 52.75237 | -5.60182 | 12556 ft | 308 kts | 341° |
| 2026-05-05 09:10 | 52.77271 | -5.61242 | 12209 ft | 305 kts | 341° |
| 2026-05-05 09:10 | 52.79285 | -5.62291 | 11850 ft | 302 kts | 341° |
| 2026-05-05 09:10 | 52.81275 | -5.63330 | 11505 ft | 298 kts | 341° |
| 2026-05-05 09:11 | 52.82581 | -5.64012 | 11264 ft | 296 kts | 341° |
| 2026-05-05 09:11 | 52.84539 | -5.65035 | 10925 ft | 293 kts | 341° |
| 2026-05-05 09:11 | 52.86484 | -5.66053 | 10602 ft | 294 kts | 341° |
| 2026-05-05 09:11 | 52.88422 | -5.67067 | 10488 ft | 289 kts | 341° |
| 2026-05-05 09:12 | 52.90315 | -5.68058 | 10342 ft | 280 kts | 341° |
| 2026-05-05 09:12 | 52.92137 | -5.69013 | 10195 ft | 269 kts | 341° |
| 2026-05-05 09:12 | 52.93886 | -5.69930 | 10091 ft | 258 kts | 341° |
| 2026-05-05 09:12 | 52.95576 | -5.70818 | 9824 ft | 253 kts | 341° |
| 2026-05-05 09:13 | 52.97254 | -5.71701 | 9533 ft | 254 kts | 341° |
| 2026-05-05 09:13 | 52.98953 | -5.72596 | 9258 ft | 259 kts | 341° |
| 2026-05-05 09:13 | 53.00662 | -5.73497 | 8944 ft | 262 kts | 341° |
| 2026-05-05 09:13 | 53.02421 | -5.74424 | 8624 ft | 260 kts | 341° |
| 2026-05-05 09:14 | 53.04107 | -5.75313 | 8324 ft | 256 kts | 341° |
| 2026-05-05 09:14 | 53.05809 | -5.76211 | 8006 ft | 251 kts | 341° |
| 2026-05-05 09:14 | 53.07433 | -5.77068 | 7724 ft | 246 kts | 341° |
| 2026-05-05 09:14 | 53.09061 | -5.77929 | 7462 ft | 245 kts | 341° |
| 2026-05-05 09:15 | 53.10684 | -5.78788 | 7286 ft | 244 kts | 341° |
| 2026-05-05 09:15 | 53.12298 | -5.79513 | 7165 ft | 235 kts | 355° |
| 2026-05-05 09:15 | 53.13885 | -5.79024 | 7121 ft | 237 kts | 25° |
| 2026-05-05 09:15 | 53.15214 | -5.77376 | 7074 ft | 240 kts | 47° |
| 2026-05-05 09:16 | 53.16142 | -5.75068 | 7099 ft | 241 kts | 57° |
| 2026-05-05 09:16 | 53.16956 | -5.72614 | 7082 ft | 243 kts | 58° |
| 2026-05-05 09:16 | 53.17772 | -5.70144 | 7107 ft | 243 kts | 58° |
| 2026-05-05 09:16 | 53.18588 | -5.67701 | 7155 ft | 239 kts | 58° |
| 2026-05-05 09:17 | 53.19405 | -5.65277 | 7051 ft | 241 kts | 57° |
| 2026-05-05 09:17 | 53.20438 | -5.63099 | 6676 ft | 241 kts | 38° |
| 2026-05-05 09:17 | 53.21775 | -5.61446 | 6393 ft | 237 kts | 32° |
| 2026-05-05 09:17 | 53.23116 | -5.59882 | 6119 ft | 233 kts | 33° |
| 2026-05-05 09:18 | 53.24419 | -5.58333 | 5836 ft | 226 kts | 31° |
| 2026-05-05 09:18 | 53.25865 | -5.57549 | 5517 ft | 221 kts | 355° |
| 2026-05-05 09:18 | 53.27261 | -5.58473 | 5316 ft | 218 kts | 323° |
| 2026-05-05 09:18 | 53.28323 | -5.60332 | 5135 ft | 226 kts | 308° |
| 2026-05-05 09:19 | 53.29171 | -5.62555 | 4938 ft | 230 kts | 303° |
| 2026-05-05 09:19 | 53.29969 | -5.64853 | 4772 ft | 227 kts | 302° |
| 2026-05-05 09:19 | 53.30749 | -5.67124 | 4620 ft | 223 kts | 302° |
| 2026-05-05 09:19 | 53.31517 | -5.69352 | 4477 ft | 221 kts | 302° |
| 2026-05-05 09:20 | 53.32294 | -5.71593 | 4361 ft | 225 kts | 302° |
| 2026-05-05 09:20 | 53.33085 | -5.73872 | 4239 ft | 226 kts | 302° |
| 2026-05-05 09:20 | 53.33872 | -5.76133 | 4093 ft | 224 kts | 302° |
| 2026-05-05 09:20 | 53.34654 | -5.78373 | 3958 ft | 222 kts | 302° |
| 2026-05-05 09:21 | 53.35434 | -5.80607 | 3832 ft | 222 kts | 302° |
| 2026-05-05 09:21 | 53.36213 | -5.82833 | 3693 ft | 221 kts | 302° |
| 2026-05-05 09:21 | 53.36991 | -5.85058 | 3578 ft | 221 kts | 302° |
| 2026-05-05 09:21 | 53.37769 | -5.87282 | 3448 ft | 221 kts | 302° |
| 2026-05-05 09:22 | 53.38534 | -5.89474 | 3320 ft | 221 kts | 303° |
| 2026-05-05 09:22 | 53.39308 | -5.91691 | 3205 ft | 220 kts | 302° |
| 2026-05-05 09:22 | 53.40039 | -5.93927 | 3038 ft | 218 kts | 294° |
| 2026-05-05 09:22 | 53.40380 | -5.96364 | 2894 ft | 208 kts | 283° |
| 2026-05-05 09:23 | 53.40577 | -5.98662 | 2783 ft | 191 kts | 279° |
| 2026-05-05 09:23 | 53.40708 | -6.00801 | 2620 ft | 180 kts | 279° |
| 2026-05-05 09:23 | 53.40824 | -6.02885 | 2586 ft | 181 kts | 278° |
| 2026-05-05 09:23 | 53.40939 | -6.04994 | 2544 ft | 182 kts | 278° |
| 2026-05-05 09:24 | 53.41052 | -6.07084 | 2388 ft | 175 kts | 278° |
| 2026-05-05 09:24 | 53.41157 | -6.09045 | 2145 ft | 163 kts | 278° |
| 2026-05-05 09:24 | 53.41259 | -6.10901 | 1933 ft | 157 kts | 278° |
| 2026-05-05 09:24 | 53.41355 | -6.12673 | 1724 ft | 148 kts | 279° |
| 2026-05-05 09:25 | 53.41446 | -6.14350 | 1508 ft | 142 kts | 279° |
| 2026-05-05 09:25 | 53.41533 | -6.15998 | 1317 ft | 141 kts | 278° |
| 2026-05-05 09:25 | 53.41607 | -6.17633 | 1098 ft | 141 kts | 278° |
| 2026-05-05 09:25 | 53.41706 | -6.19255 | 907 ft | 141 kts | 281° |
| 2026-05-05 09:26 | 53.41802 | -6.20898 | 767 ft | 142 kts | 279° |
| 2026-05-05 09:26 | 53.41891 | -6.22552 | 541 ft | 142 kts | 278° |
| 2026-05-05 09:26 | 53.41976 | -6.24178 | 352 ft | 139 kts | 280° |
| 2026-05-05 09:26 | 53.42066 | -6.25804 | 240 ft | 141 kts | 279° |
| 2026-05-05 09:27 | 53.42155 | -6.27328 | 217 ft | 118 kts | 275° |
| 2026-05-05 09:27 | 53.42209 | -6.28347 | 224 ft | 55 kts | 275° |
| 2026-05-05 09:27 | 53.42231 | -6.28794 | 218 ft | 30 kts | 275° |
| 2026-05-05 09:27 | 53.42240 | -6.28973 | 220 ft | 11 kts | 275° |
| 2026-05-05 09:28 | 53.42283 | -6.29062 | 222 ft | 11 kts | 344° |
| 2026-05-05 09:28 | 53.42357 | -6.29066 | 218 ft | 11 kts | 13° |
| 2026-05-05 09:28 | 53.42410 | -6.28924 | 222 ft | 21 kts | 91° |
| 2026-05-05 09:28 | 53.42398 | -6.28679 | 215 ft | 21 kts | 95° |
| 2026-05-05 09:29 | 53.42385 | -6.28432 | 215 ft | 21 kts | 95° |
| 2026-05-05 09:29 | 53.42373 | -6.28185 | 221 ft | 21 kts | 95° |
| 2026-05-05 09:29 | 53.42360 | -6.27939 | 215 ft | 21 kts | 95° |
| 2026-05-05 09:29 | 53.42346 | -6.27692 | 221 ft | 21 kts | 95° |
| 2026-05-05 09:30 | 53.42331 | -6.27446 | 215 ft | 21 kts | 95° |
| 2026-05-05 09:30 | 53.42318 | -6.27199 | 216 ft | 21 kts | 95° |
| 2026-05-05 09:30 | 53.42304 | -6.26953 | 219 ft | 21 kts | 95° |
| 2026-05-05 09:30 | 53.42289 | -6.26706 | 215 ft | 21 kts | 96° |
| 2026-05-05 09:31 | 53.42276 | -6.26460 | 222 ft | 21 kts | 95° |
| 2026-05-05 09:31 | 53.42264 | -6.26216 | 223 ft | 21 kts | 95° |
| 2026-05-05 09:31 | 53.42249 | -6.25967 | 222 ft | 21 kts | 96° |
| 2026-05-05 09:31 | 53.42235 | -6.25724 | 223 ft | 21 kts | 95° |
| 2026-05-05 09:32 | 53.42222 | -6.25478 | 222 ft | 21 kts | 95° |
| 2026-05-05 09:32 | 53.42208 | -6.25231 | 222 ft | 21 kts | 95° |
| 2026-05-05 09:32 | 53.42194 | -6.24986 | 216 ft | 21 kts | 95° |
| 2026-05-05 09:32 | 53.42181 | -6.24739 | 215 ft | 21 kts | 95° |
| 2026-05-05 09:33 | 53.42169 | -6.24502 | 215 ft | 20 kts | 95° |
| 2026-05-05 09:33 | 53.42161 | -6.24308 | 222 ft | 14 kts | 89° |
| 2026-05-05 09:33 | 53.42213 | -6.24175 | 221 ft | 14 kts | 43° |
| 2026-05-05 09:33 | 53.42251 | -6.24041 | 215 ft | 14 kts | 104° |
| 2026-05-05 09:34 | 53.42205 | -6.23899 | 220 ft | 14 kts | 118° |
| 2026-05-05 09:34 | 53.42212 | -6.23805 | 219 ft | 5 kts | 38° |
| 2026-05-05 09:34 | 53.42223 | -6.23794 | 221 ft | 0 kts | 31° |